KFYM/FYM METAR and TAF weather

Enter ICAO airport designator
Station Type Date Time Source
KFYM METAR 2020/04/06 16:35 UTC NOAA

KFYM 061635Z AUTO 20007KT 10SM CLR 25/12 A3011 RMK A01


Station Type Date Time Source
KFYM Decoded METAR 2020/04/06 16:35 UTC NOAA

Station name not available
Apr 06, 2020 - 12:35 PM EDT / 2020.04.06 1635 UTC
Wind: from the SSW (200 degrees) at 8 MPH (7 KT):0
Visibility: 10 mile(s):0
Sky conditions: clear
Temperature: 77 F (25 C)
Dew Point: 53 F (12 C)
Relative Humidity: 44%
Pressure (altimeter): 30.11 in. Hg (1019 hPa)
ob: KFYM 061635Z AUTO 20007KT 10SM CLR 25/12 A3011 RMK A01
cycle: 16

Station Type Date Time Source
KFYM TAF 2009/08/31 19:45 UTC NOAA

METAR KFYM 311945Z AUTO 01006KT 10SM CLR 26/11 A3009
RMK AO1 T02550111 $

Example: see airport list